sensor_id;sensor_type;location;lat;lon;timestamp;P1;durP1;ratioP1;P2;durP2;ratioP2
25984;SDS011;66753;53.848;10.658;2023-02-15T00:03:16;20.93;;;8.83;;
25984;SDS011;66753;53.848;10.658;2023-02-15T00:08:16;21.63;;;8.63;;
25984;SDS011;66753;53.848;10.658;2023-02-15T00:13:18;22.00;;;9.32;;
25984;SDS011;66753;53.848;10.658;2023-02-15T00:18:18;22.33;;;8.77;;
25984;SDS011;66753;53.848;10.658;2023-02-15T00:23:19;22.07;;;8.70;;
25984;SDS011;66753;53.848;10.658;2023-02-15T00:28:19;21.27;;;8.37;;
25984;SDS011;66753;53.848;10.658;2023-02-15T00:33:19;23.73;;;8.40;;
25984;SDS011;66753;53.848;10.658;2023-02-15T00:38:20;27.85;;;8.70;;
25984;SDS011;66753;53.848;10.658;2023-02-15T00:43:20;21.67;;;7.67;;
25984;SDS011;66753;53.848;10.658;2023-02-15T00:48:21;21.85;;;8.38;;
25984;SDS011;66753;53.848;10.658;2023-02-15T00:53:22;21.17;;;8.68;;
25984;SDS011;66753;53.848;10.658;2023-02-15T00:58:24;21.48;;;8.18;;
25984;SDS011;66753;53.848;10.658;2023-02-15T01:03:24;21.98;;;8.73;;
25984;SDS011;66753;53.848;10.658;2023-02-15T01:08:26;21.95;;;9.05;;
25984;SDS011;66753;53.848;10.658;2023-02-15T01:13:27;23.73;;;8.80;;
25984;SDS011;66753;53.848;10.658;2023-02-15T01:18:27;26.07;;;9.10;;
25984;SDS011;66753;53.848;10.658;2023-02-15T01:23:28;23.48;;;9.07;;
25984;SDS011;66753;53.848;10.658;2023-02-15T01:28:28;21.80;;;7.97;;
25984;SDS011;66753;53.848;10.658;2023-02-15T01:33:29;23.00;;;9.75;;
25984;SDS011;66753;53.848;10.658;2023-02-15T01:38:32;19.97;;;8.13;;
25984;SDS011;66753;53.848;10.658;2023-02-15T01:43:41;23.52;;;9.43;;
25984;SDS011;66753;53.848;10.658;2023-02-15T01:48:54;21.45;;;8.77;;
25984;SDS011;66753;53.848;10.658;2023-02-15T01:54:00;20.70;;;7.55;;
25984;SDS011;66753;53.848;10.658;2023-02-15T01:59:07;24.15;;;9.82;;
25984;SDS011;66753;53.848;10.658;2023-02-15T02:04:16;21.88;;;8.40;;
25984;SDS011;66753;53.848;10.658;2023-02-15T02:09:23;20.65;;;8.48;;
25984;SDS011;66753;53.848;10.658;2023-02-15T02:14:24;22.38;;;8.63;;
25984;SDS011;66753;53.848;10.658;2023-02-15T02:46:06;22.27;;;8.43;;
25984;SDS011;66753;53.848;10.658;2023-02-15T02:51:28;20.95;;;8.70;;
25984;SDS011;66753;53.848;10.658;2023-02-15T02:56:30;23.57;;;8.90;;
25984;SDS011;66753;53.848;10.658;2023-02-15T03:01:33;29.75;;;10.23;;
25984;SDS011;66753;53.848;10.658;2023-02-15T03:16:50;18.70;;;7.67;;
25984;SDS011;66753;53.848;10.658;2023-02-15T03:21:54;21.45;;;7.55;;
25984;SDS011;66753;53.848;10.658;2023-02-15T03:26:57;20.25;;;7.97;;
25984;SDS011;66753;53.848;10.658;2023-02-15T03:32:02;19.92;;;8.18;;
25984;SDS011;66753;53.848;10.658;2023-02-15T03:37:09;20.52;;;7.90;;
25984;SDS011;66753;53.848;10.658;2023-02-15T03:47:22;20.23;;;8.32;;
25984;SDS011;66753;53.848;10.658;2023-02-15T03:52:28;18.80;;;7.22;;
25984;SDS011;66753;53.848;10.658;2023-02-15T03:57:31;18.40;;;8.23;;
25984;SDS011;66753;53.848;10.658;2023-02-15T04:07:59;21.77;;;8.43;;
25984;SDS011;66753;53.848;10.658;2023-02-15T04:12:59;28.00;;;9.10;;
25984;SDS011;66753;53.848;10.658;2023-02-15T04:18:02;30.97;;;10.20;;
25984;SDS011;66753;53.848;10.658;2023-02-15T04:23:05;28.50;;;9.90;;
25984;SDS011;66753;53.848;10.658;2023-02-15T04:28:24;47.92;;;9.70;;
25984;SDS011;66753;53.848;10.658;2023-02-15T04:33:25;39.57;;;10.30;;
25984;SDS011;66753;53.848;10.658;2023-02-15T04:38:25;32.23;;;9.37;;
25984;SDS011;66753;53.848;10.658;2023-02-15T04:43:26;62.43;;;10.77;;
25984;SDS011;66753;53.848;10.658;2023-02-15T04:48:26;34.17;;;9.63;;
25984;SDS011;66753;53.848;10.658;2023-02-15T04:53:26;31.90;;;9.40;;
25984;SDS011;66753;53.848;10.658;2023-02-15T04:58:27;48.97;;;10.70;;
25984;SDS011;66753;53.848;10.658;2023-02-15T05:03:27;62.80;;;9.73;;
25984;SDS011;66753;53.848;10.658;2023-02-15T05:08:28;37.30;;;8.87;;
25984;SDS011;66753;53.848;10.658;2023-02-15T05:13:28;32.63;;;8.70;;
25984;SDS011;66753;53.848;10.658;2023-02-15T05:18:29;30.97;;;9.70;;
25984;SDS011;66753;53.848;10.658;2023-02-15T05:23:29;28.73;;;10.00;;
25984;SDS011;66753;53.848;10.658;2023-02-15T05:28:29;48.10;;;9.82;;
25984;SDS011;66753;53.848;10.658;2023-02-15T05:33:30;44.67;;;9.93;;
25984;SDS011;66753;53.848;10.658;2023-02-15T05:38:31;52.97;;;9.90;;
25984;SDS011;66753;53.848;10.658;2023-02-15T05:43:32;37.78;;;9.88;;
25984;SDS011;66753;53.848;10.658;2023-02-15T05:48:33;23.13;;;9.00;;
25984;SDS011;66753;53.848;10.658;2023-02-15T05:53:35;37.10;;;9.32;;
25984;SDS011;66753;53.848;10.658;2023-02-15T05:58:38;43.55;;;8.50;;
25984;SDS011;66753;53.848;10.658;2023-02-15T06:03:40;34.10;;;8.70;;
25984;SDS011;66753;53.848;10.658;2023-02-15T06:08:41;29.85;;;8.55;;
25984;SDS011;66753;53.848;10.658;2023-02-15T06:13:41;62.45;;;10.10;;
25984;SDS011;66753;53.848;10.658;2023-02-15T06:18:41;40.57;;;8.00;;
25984;SDS011;66753;53.848;10.658;2023-02-15T06:23:42;32.20;;;8.20;;
25984;SDS011;66753;53.848;10.658;2023-02-15T06:28:43;32.93;;;8.17;;
25984;SDS011;66753;53.848;10.658;2023-02-15T06:33:43;26.80;;;8.50;;
25984;SDS011;66753;53.848;10.658;2023-02-15T06:38:44;26.73;;;8.15;;
25984;SDS011;66753;53.848;10.658;2023-02-15T06:43:44;28.57;;;7.97;;
25984;SDS011;66753;53.848;10.658;2023-02-15T06:48:45;26.00;;;9.13;;
25984;SDS011;66753;53.848;10.658;2023-02-15T06:53:45;52.77;;;9.53;;
25984;SDS011;66753;53.848;10.658;2023-02-15T06:58:45;40.93;;;9.13;;
25984;SDS011;66753;53.848;10.658;2023-02-15T07:03:46;31.93;;;9.43;;
25984;SDS011;66753;53.848;10.658;2023-02-15T07:08:46;27.13;;;9.05;;
25984;SDS011;66753;53.848;10.658;2023-02-15T07:13:47;25.75;;;8.45;;
25984;SDS011;66753;53.848;10.658;2023-02-15T07:18:47;25.67;;;8.23;;
25984;SDS011;66753;53.848;10.658;2023-02-15T07:23:48;30.83;;;8.40;;
25984;SDS011;66753;53.848;10.658;2023-02-15T07:28:48;39.70;;;7.53;;
25984;SDS011;66753;53.848;10.658;2023-02-15T07:33:49;26.20;;;7.23;;
25984;SDS011;66753;53.848;10.658;2023-02-15T07:38:49;26.30;;;8.43;;
25984;SDS011;66753;53.848;10.658;2023-02-15T07:43:49;25.37;;;7.83;;
25984;SDS011;66753;53.848;10.658;2023-02-15T07:48:50;29.33;;;8.27;;
25984;SDS011;66753;53.848;10.658;2023-02-15T07:53:50;28.90;;;7.77;;
25984;SDS011;66753;53.848;10.658;2023-02-15T07:58:51;37.58;;;8.68;;
25984;SDS011;66753;53.848;10.658;2023-02-15T08:03:53;25.38;;;7.25;;
25984;SDS011;66753;53.848;10.658;2023-02-15T08:08:54;35.40;;;7.60;;
25984;SDS011;66753;53.848;10.658;2023-02-15T08:19:01;23.85;;;8.15;;
25984;SDS011;66753;53.848;10.658;2023-02-15T08:24:07;23.85;;;8.10;;
25984;SDS011;66753;53.848;10.658;2023-02-15T08:29:08;31.85;;;7.95;;
25984;SDS011;66753;53.848;10.658;2023-02-15T08:34:10;24.83;;;8.10;;
25984;SDS011;66753;53.848;10.658;2023-02-15T08:39:14;18.20;;;7.63;;
25984;SDS011;66753;53.848;10.658;2023-02-15T08:44:16;25.95;;;8.93;;
25984;SDS011;66753;53.848;10.658;2023-02-15T08:49:19;40.78;;;8.05;;
25984;SDS011;66753;53.848;10.658;2023-02-15T08:54:21;45.83;;;9.55;;
25984;SDS011;66753;53.848;10.658;2023-02-15T08:59:22;27.50;;;8.45;;
25984;SDS011;66753;53.848;10.658;2023-02-15T09:04:23;23.70;;;8.15;;
25984;SDS011;66753;53.848;10.658;2023-02-15T09:09:23;25.73;;;8.37;;
25984;SDS011;66753;53.848;10.658;2023-02-15T09:14:24;25.63;;;7.43;;
25984;SDS011;66753;53.848;10.658;2023-02-15T09:19:26;22.73;;;7.82;;
25984;SDS011;66753;53.848;10.658;2023-02-15T09:24:27;18.02;;;7.03;;
25984;SDS011;66753;53.848;10.658;2023-02-15T09:29:27;23.73;;;7.70;;
25984;SDS011;66753;53.848;10.658;2023-02-15T09:34:27;38.43;;;8.20;;
25984;SDS011;66753;53.848;10.658;2023-02-15T09:39:28;29.50;;;7.10;;
25984;SDS011;66753;53.848;10.658;2023-02-15T10:00:03;26.83;;;8.33;;
25984;SDS011;66753;53.848;10.658;2023-02-15T10:26:45;21.25;;;8.23;;
25984;SDS011;66753;53.848;10.658;2023-02-15T10:42:30;30.98;;;9.30;;
25984;SDS011;66753;53.848;10.658;2023-02-15T10:48:09;23.80;;;9.57;;
25984;SDS011;66753;53.848;10.658;2023-02-15T11:09:22;25.13;;;8.38;;
25984;SDS011;66753;53.848;10.658;2023-02-15T11:25:06;19.88;;;8.70;;
25984;SDS011;66753;53.848;10.658;2023-02-15T11:30:21;16.42;;;9.00;;
25984;SDS011;66753;53.848;10.658;2023-02-15T11:35:31;19.20;;;8.45;;
25984;SDS011;66753;53.848;10.658;2023-02-15T11:40:47;27.45;;;11.73;;
25984;SDS011;66753;53.848;10.658;2023-02-15T11:45:49;18.52;;;8.70;;
25984;SDS011;66753;53.848;10.658;2023-02-15T11:50:49;18.47;;;8.33;;
25984;SDS011;66753;53.848;10.658;2023-02-15T11:55:50;21.30;;;8.03;;
25984;SDS011;66753;53.848;10.658;2023-02-15T12:00:56;19.65;;;8.20;;
25984;SDS011;66753;53.848;10.658;2023-02-15T12:06:02;17.00;;;7.95;;
25984;SDS011;66753;53.848;10.658;2023-02-15T12:11:07;21.80;;;8.68;;
25984;SDS011;66753;53.848;10.658;2023-02-15T12:16:12;23.25;;;8.70;;
25984;SDS011;66753;53.848;10.658;2023-02-15T12:21:23;18.23;;;7.93;;
25984;SDS011;66753;53.848;10.658;2023-02-15T12:26:27;20.52;;;9.70;;
25984;SDS011;66753;53.848;10.658;2023-02-15T12:31:36;20.85;;;9.32;;
25984;SDS011;66753;53.848;10.658;2023-02-15T12:36:43;20.05;;;9.18;;
25984;SDS011;66753;53.848;10.658;2023-02-15T12:46:58;23.52;;;10.90;;
25984;SDS011;66753;53.848;10.658;2023-02-15T12:52:01;24.25;;;10.35;;
25984;SDS011;66753;53.848;10.658;2023-02-15T12:57:28;24.15;;;9.82;;
25984;SDS011;66753;53.848;10.658;2023-02-15T13:07:48;25.23;;;11.95;;
25984;SDS011;66753;53.848;10.658;2023-02-15T13:12:51;26.75;;;10.70;;
25984;SDS011;66753;53.848;10.658;2023-02-15T13:17:55;28.42;;;11.10;;
25984;SDS011;66753;53.848;10.658;2023-02-15T13:28:03;23.40;;;9.55;;
25984;SDS011;66753;53.848;10.658;2023-02-15T13:33:05;21.50;;;9.98;;
25984;SDS011;66753;53.848;10.658;2023-02-15T13:54:36;20.38;;;9.38;;
25984;SDS011;66753;53.848;10.658;2023-02-15T14:05:19;22.25;;;9.75;;
25984;SDS011;66753;53.848;10.658;2023-02-15T14:25:53;33.23;;;13.40;;
25984;SDS011;66753;53.848;10.658;2023-02-15T14:30:58;41.90;;;15.07;;
25984;SDS011;66753;53.848;10.658;2023-02-15T14:36:00;34.63;;;13.10;;
25984;SDS011;66753;53.848;10.658;2023-02-15T14:56:46;35.33;;;13.73;;
25984;SDS011;66753;53.848;10.658;2023-02-15T15:07:09;39.45;;;14.68;;
25984;SDS011;66753;53.848;10.658;2023-02-15T15:22:33;42.17;;;15.65;;
25984;SDS011;66753;53.848;10.658;2023-02-15T15:32:53;40.33;;;15.43;;
25984;SDS011;66753;53.848;10.658;2023-02-15T15:48:37;41.28;;;16.17;;
25984;SDS011;66753;53.848;10.658;2023-02-15T15:53:40;35.88;;;14.75;;
25984;SDS011;66753;53.848;10.658;2023-02-15T15:58:45;41.60;;;14.90;;
25984;SDS011;66753;53.848;10.658;2023-02-15T16:03:51;42.25;;;16.05;;
25984;SDS011;66753;53.848;10.658;2023-02-15T16:08:53;35.55;;;14.70;;
25984;SDS011;66753;53.848;10.658;2023-02-15T16:13:54;37.53;;;15.60;;
25984;SDS011;66753;53.848;10.658;2023-02-15T16:18:55;32.70;;;14.30;;
25984;SDS011;66753;53.848;10.658;2023-02-15T16:29:31;33.70;;;15.18;;
25984;SDS011;66753;53.848;10.658;2023-02-15T16:34:33;39.83;;;13.48;;
25984;SDS011;66753;53.848;10.658;2023-02-15T16:39:33;37.03;;;14.93;;
25984;SDS011;66753;53.848;10.658;2023-02-15T16:44:41;41.05;;;15.18;;
25984;SDS011;66753;53.848;10.658;2023-02-15T16:49:43;37.67;;;13.82;;
25984;SDS011;66753;53.848;10.658;2023-02-15T16:54:48;51.33;;;15.20;;
25984;SDS011;66753;53.848;10.658;2023-02-15T16:59:53;32.25;;;13.73;;
25984;SDS011;66753;53.848;10.658;2023-02-15T17:21:08;33.67;;;13.43;;
25984;SDS011;66753;53.848;10.658;2023-02-15T17:26:25;34.13;;;13.25;;
25984;SDS011;66753;53.848;10.658;2023-02-15T17:31:35;37.10;;;14.02;;
25984;SDS011;66753;53.848;10.658;2023-02-15T17:36:36;35.60;;;12.45;;
25984;SDS011;66753;53.848;10.658;2023-02-15T17:41:58;34.00;;;13.18;;
25984;SDS011;66753;53.848;10.658;2023-02-15T17:46:58;26.20;;;11.90;;
25984;SDS011;66753;53.848;10.658;2023-02-15T17:52:02;33.53;;;13.20;;
25984;SDS011;66753;53.848;10.658;2023-02-15T17:57:07;33.53;;;11.30;;
25984;SDS011;66753;53.848;10.658;2023-02-15T18:02:12;29.33;;;11.38;;
25984;SDS011;66753;53.848;10.658;2023-02-15T18:07:31;27.40;;;11.68;;
25984;SDS011;66753;53.848;10.658;2023-02-15T18:12:50;34.30;;;12.07;;
25984;SDS011;66753;53.848;10.658;2023-02-15T18:17:50;24.17;;;10.30;;
25984;SDS011;66753;53.848;10.658;2023-02-15T18:22:51;40.92;;;11.50;;
25984;SDS011;66753;53.848;10.658;2023-02-15T18:27:52;32.30;;;11.98;;
25984;SDS011;66753;53.848;10.658;2023-02-15T18:32:53;23.65;;;10.35;;
25984;SDS011;66753;53.848;10.658;2023-02-15T18:37:56;28.95;;;10.63;;
25984;SDS011;66753;53.848;10.658;2023-02-15T18:42:58;35.38;;;12.27;;
25984;SDS011;66753;53.848;10.658;2023-02-15T18:47:58;27.93;;;10.70;;
25984;SDS011;66753;53.848;10.658;2023-02-15T18:52:59;28.03;;;10.43;;
25984;SDS011;66753;53.848;10.658;2023-02-15T18:58:02;24.83;;;10.13;;
25984;SDS011;66753;53.848;10.658;2023-02-15T19:03:03;28.88;;;11.45;;
25984;SDS011;66753;53.848;10.658;2023-02-15T19:08:03;33.33;;;11.48;;
25984;SDS011;66753;53.848;10.658;2023-02-15T19:13:08;23.60;;;10.43;;
25984;SDS011;66753;53.848;10.658;2023-02-15T19:18:10;30.40;;;10.45;;
25984;SDS011;66753;53.848;10.658;2023-02-15T19:23:17;34.20;;;11.60;;
25984;SDS011;66753;53.848;10.658;2023-02-15T19:28:31;33.53;;;10.52;;
25984;SDS011;66753;53.848;10.658;2023-02-15T19:33:33;27.58;;;10.73;;
25984;SDS011;66753;53.848;10.658;2023-02-15T19:38:33;24.95;;;10.60;;
25984;SDS011;66753;53.848;10.658;2023-02-15T19:43:35;21.90;;;10.55;;
25984;SDS011;66753;53.848;10.658;2023-02-15T19:48:36;19.37;;;8.77;;
25984;SDS011;66753;53.848;10.658;2023-02-15T19:53:36;46.60;;;11.60;;
25984;SDS011;66753;53.848;10.658;2023-02-15T19:58:37;20.00;;;9.07;;
25984;SDS011;66753;53.848;10.658;2023-02-15T20:03:37;21.77;;;9.80;;
25984;SDS011;66753;53.848;10.658;2023-02-15T20:08:37;26.80;;;9.53;;
25984;SDS011;66753;53.848;10.658;2023-02-15T20:13:39;21.95;;;9.05;;
25984;SDS011;66753;53.848;10.658;2023-02-15T20:18:40;23.73;;;9.80;;
25984;SDS011;66753;53.848;10.658;2023-02-15T20:23:43;22.92;;;9.38;;
25984;SDS011;66753;53.848;10.658;2023-02-15T20:28:45;19.80;;;8.65;;
25984;SDS011;66753;53.848;10.658;2023-02-15T20:33:47;19.25;;;8.98;;
25984;SDS011;66753;53.848;10.658;2023-02-15T20:38:48;30.05;;;9.38;;
25984;SDS011;66753;53.848;10.658;2023-02-15T20:43:48;25.33;;;9.25;;
25984;SDS011;66753;53.848;10.658;2023-02-15T20:48:49;34.70;;;9.87;;
25984;SDS011;66753;53.848;10.658;2023-02-15T20:53:49;20.30;;;9.23;;
25984;SDS011;66753;53.848;10.658;2023-02-15T20:58:50;21.33;;;9.63;;
25984;SDS011;66753;53.848;10.658;2023-02-15T21:03:51;23.10;;;9.05;;
25984;SDS011;66753;53.848;10.658;2023-02-15T21:08:52;26.38;;;10.18;;
25984;SDS011;66753;53.848;10.658;2023-02-15T21:13:52;23.70;;;10.00;;
25984;SDS011;66753;53.848;10.658;2023-02-15T21:18:53;23.77;;;9.77;;
25984;SDS011;66753;53.848;10.658;2023-02-15T21:23:53;27.33;;;9.07;;
25984;SDS011;66753;53.848;10.658;2023-02-15T21:28:54;21.30;;;9.68;;
25984;SDS011;66753;53.848;10.658;2023-02-15T21:33:55;21.40;;;9.48;;
25984;SDS011;66753;53.848;10.658;2023-02-15T21:38:56;30.35;;;9.25;;
25984;SDS011;66753;53.848;10.658;2023-02-15T21:43:57;35.10;;;9.80;;
25984;SDS011;66753;53.848;10.658;2023-02-15T21:49:16;21.23;;;8.65;;
25984;SDS011;66753;53.848;10.658;2023-02-15T21:54:17;19.00;;;8.43;;
25984;SDS011;66753;53.848;10.658;2023-02-15T21:59:18;20.45;;;9.10;;
25984;SDS011;66753;53.848;10.658;2023-02-15T22:04:23;22.77;;;8.73;;
25984;SDS011;66753;53.848;10.658;2023-02-15T22:09:25;26.13;;;10.02;;
25984;SDS011;66753;53.848;10.658;2023-02-15T22:19:33;31.70;;;9.32;;
25984;SDS011;66753;53.848;10.658;2023-02-15T22:24:33;24.67;;;7.97;;
25984;SDS011;66753;53.848;10.658;2023-02-15T22:29:34;21.23;;;9.17;;
25984;SDS011;66753;53.848;10.658;2023-02-15T22:34:34;33.10;;;9.00;;
25984;SDS011;66753;53.848;10.658;2023-02-15T22:39:36;21.05;;;8.30;;
25984;SDS011;66753;53.848;10.658;2023-02-15T22:44:36;18.57;;;8.40;;
25984;SDS011;66753;53.848;10.658;2023-02-15T22:49:36;19.17;;;8.47;;
25984;SDS011;66753;53.848;10.658;2023-02-15T22:54:37;17.27;;;7.63;;
25984;SDS011;66753;53.848;10.658;2023-02-15T22:59:37;19.03;;;7.93;;
25984;SDS011;66753;53.848;10.658;2023-02-15T23:04:38;33.73;;;8.40;;
25984;SDS011;66753;53.848;10.658;2023-02-15T23:09:38;16.35;;;8.15;;
25984;SDS011;66753;53.848;10.658;2023-02-15T23:14:39;17.47;;;7.70;;
25984;SDS011;66753;53.848;10.658;2023-02-15T23:19:39;19.27;;;7.87;;
25984;SDS011;66753;53.848;10.658;2023-02-15T23:24:40;19.53;;;7.60;;
25984;SDS011;66753;53.848;10.658;2023-02-15T23:29:40;18.33;;;8.45;;
25984;SDS011;66753;53.848;10.658;2023-02-15T23:34:41;17.45;;;7.30;;
25984;SDS011;66753;53.848;10.658;2023-02-15T23:39:42;13.88;;;7.13;;
25984;SDS011;66753;53.848;10.658;2023-02-15T23:45:01;15.77;;;8.23;;
25984;SDS011;66753;53.848;10.658;2023-02-15T23:50:04;15.82;;;8.32;;
25984;SDS011;66753;53.848;10.658;2023-02-15T23:55:14;13.13;;;7.20;;
